Terminal Aerodrome Forecast
Issued by NWS Grand Forks, ND

Home | Current Version | Previous Version | Graphics & Text | Print | Product List | Glossary On
Versions: 1 2 3 4 5 6 7 8 9 10 11 12 13 14 15 16 17
000
FTUS43 KFGF 022000 AAA
TAFFAR
TAF AMD
KFAR 022038Z 0221/0318 19016G26KT P6SM SCT140 BKN250
     FM030000 18012G22KT P6SM VCTS SCT050CB BKN120
     FM030600 17008KT P6SM BKN140=

USA.gov is the U.S. government's official web portal to all federal, state and local government web resources and services.